createdAt,value
2018-11-14T00:01:41.497Z,101361.19
2018-11-14T00:04:09.925Z,101354.53
2018-11-14T00:06:38.309Z,101352.85
2018-11-14T00:09:09.178Z,101355.30
2018-11-14T00:11:37.601Z,101353.76
2018-11-14T00:14:06.401Z,101360.15
2018-11-14T00:16:34.986Z,101361.06
2018-11-14T00:19:03.397Z,101365.53
2018-11-14T00:21:31.772Z,101368.05
2018-11-14T00:24:00.173Z,101371.45
2018-11-14T00:26:28.845Z,101370.61
2018-11-14T00:28:57.489Z,101375.22
2018-11-14T00:31:25.694Z,101376.06
2018-11-14T00:33:54.069Z,101379.19
2018-11-14T00:36:22.665Z,101381.75
2018-11-14T00:38:51.082Z,101382.08
2018-11-14T00:41:19.473Z,101383.09
2018-11-14T00:43:47.886Z,101380.47
2018-11-14T00:46:16.279Z,101383.36
2018-11-14T00:48:44.669Z,101389.02
2018-11-14T00:51:13.069Z,101388.38
2018-11-14T00:53:41.575Z,101385.98
2018-11-14T00:56:09.944Z,101391.36
2018-11-14T00:58:38.372Z,101390.45
2018-11-14T01:01:06.755Z,101394.19
2018-11-14T01:03:35.166Z,101390.93
2018-11-14T01:06:03.573Z,101393.69
2018-11-14T01:08:31.955Z,101402.06
2018-11-14T01:11:00.313Z,101398.89
2018-11-14T01:13:28.717Z,101410.91
2018-11-14T01:15:57.088Z,101400.41
2018-11-14T01:18:25.481Z,101394.26
2018-11-14T01:20:53.844Z,101392.37
2018-11-14T01:23:22.246Z,101386.08
2018-11-14T01:25:50.641Z,101393.21
2018-11-14T01:28:19.009Z,101386.22
2018-11-14T01:30:47.375Z,101380.40
2018-11-14T01:33:15.771Z,101379.53
2018-11-14T01:35:44.152Z,101384.23
2018-11-14T01:38:12.537Z,101378.77
2018-11-14T01:40:41.381Z,101377.28
2018-11-14T01:43:09.801Z,101370.77
2018-11-14T01:45:38.212Z,101370.48
2018-11-14T01:48:06.587Z,101364.04
2018-11-14T01:50:34.973Z,101369.83
2018-11-14T01:53:03.362Z,101378.34
2018-11-14T01:55:31.798Z,101383.09
2018-11-14T01:58:00.309Z,101372.54
2018-11-14T02:00:28.691Z,101369.00
2018-11-14T02:02:57.055Z,101370.03
2018-11-14T02:05:25.500Z,101368.45
2018-11-14T02:07:53.857Z,101367.11
2018-11-14T02:10:22.255Z,101367.95
2018-11-14T02:12:50.882Z,101374.67
2018-11-14T02:15:21.525Z,101381.25
2018-11-14T02:17:49.954Z,101376.57
2018-11-14T02:20:18.389Z,101370.01
2018-11-14T02:22:47.108Z,101364.89
2018-11-14T02:25:16.024Z,101368.68
2018-11-14T02:27:44.422Z,101372.73
2018-11-14T02:30:14.977Z,101371.84
2018-11-14T02:32:43.355Z,101378.25
2018-11-14T02:35:11.831Z,101375.03
2018-11-14T02:37:41.261Z,101372.39
2018-11-14T02:40:11.985Z,101371.61
2018-11-14T02:42:40.532Z,101371.10
2018-11-14T02:45:09.281Z,101369.06
2018-11-14T02:47:37.720Z,101370.14
2018-11-14T02:50:06.977Z,101369.33
2018-11-14T02:52:35.461Z,101372.95
2018-11-14T02:55:03.894Z,101375.69
2018-11-14T02:57:32.312Z,101372.10
2018-11-14T03:00:00.701Z,101367.56
2018-11-14T03:02:29.075Z,101370.81
2018-11-14T03:04:57.479Z,101367.48
2018-11-14T03:07:25.938Z,101375.77
2018-11-14T03:09:54.376Z,101369.53
2018-11-14T03:12:22.779Z,101370.91
2018-11-14T03:14:51.142Z,101367.17
2018-11-14T03:17:19.540Z,101367.64
2018-11-14T03:19:48.217Z,101361.28
2018-11-14T03:22:16.654Z,101359.16
2018-11-14T03:24:45.098Z,101357.45
2018-11-14T03:27:13.506Z,101356.19
2018-11-14T03:29:41.929Z,101364.58
2018-11-14T03:32:10.366Z,101347.67
2018-11-14T03:34:38.833Z,101352.16
2018-11-14T03:37:07.255Z,101347.27
2018-11-14T03:39:35.700Z,101347.95
2018-11-14T03:42:04.149Z,101353.78
2018-11-14T03:44:32.569Z,101359.47
2018-11-14T03:47:00.985Z,101360.31
2018-11-14T03:49:29.413Z,101368.04
2018-11-14T03:51:57.818Z,101367.09
2018-11-14T03:54:26.260Z,101362.90
2018-11-14T03:56:54.664Z,101355.55
2018-11-14T03:59:23.249Z,101358.48
2018-11-14T04:01:51.672Z,101361.91
2018-11-14T04:04:20.081Z,101365.69
2018-11-14T04:06:48.559Z,101361.56
2018-11-14T04:09:17.158Z,101360.88
2018-11-14T04:11:45.446Z,101363.86
2018-11-14T04:14:13.849Z,101358.70
2018-11-14T04:16:42.300Z,101356.79
2018-11-14T04:19:10.714Z,101355.75
2018-11-14T04:21:39.137Z,101353.36
2018-11-14T04:24:07.539Z,101357.29
2018-11-14T04:26:35.925Z,101357.08
2018-11-14T04:29:04.349Z,101351.75
2018-11-14T04:31:32.749Z,101334.47
2018-11-14T04:34:01.201Z,101353.52
2018-11-14T04:36:29.635Z,101359.69
2018-11-14T04:38:58.010Z,101359.42
2018-11-14T04:41:26.409Z,101354.46
2018-11-14T04:43:54.775Z,101350.23
2018-11-14T04:46:23.202Z,101344.72
2018-11-14T04:48:51.577Z,101344.47
2018-11-14T04:51:19.994Z,101340.69
2018-11-14T04:53:48.382Z,101336.70
2018-11-14T04:56:16.818Z,101325.63
2018-11-14T04:58:45.193Z,101327.12
2018-11-14T05:01:13.582Z,101324.92
2018-11-14T05:03:41.957Z,101323.58
2018-11-14T05:06:10.353Z,101319.91
2018-11-14T05:08:38.730Z,101313.55
2018-11-14T05:11:07.125Z,101308.72
2018-11-14T05:13:35.493Z,101308.61
2018-11-14T05:16:03.946Z,101308.63
2018-11-14T05:18:32.317Z,101296.94
2018-11-14T05:21:00.694Z,101297.64
2018-11-14T05:23:29.098Z,101297.33
2018-11-14T05:25:57.473Z,101306.17
2018-11-14T05:28:25.845Z,101307.06
2018-11-14T05:30:54.242Z,101308.11
2018-11-14T05:33:22.639Z,101307.15
2018-11-14T05:35:51.034Z,101302.78
2018-11-14T05:38:19.417Z,101306.49
2018-11-14T05:40:47.826Z,101299.94
2018-11-14T05:43:16.206Z,101309.94
2018-11-14T05:45:44.617Z,101310.12
2018-11-14T05:48:13.530Z,101319.09
2018-11-14T05:50:41.906Z,101313.38
2018-11-14T05:53:10.289Z,101315.06
2018-11-14T05:55:38.973Z,101312.92
2018-11-14T05:58:07.329Z,101316.14
2018-11-14T06:00:35.789Z,101324.00
2018-11-14T06:03:04.876Z,101326.84
2018-11-14T06:05:33.346Z,101316.00
2018-11-14T06:08:01.721Z,101317.53
2018-11-14T06:10:30.113Z,101318.91
2018-11-14T06:12:58.511Z,101317.64
2018-11-14T06:15:26.985Z,101313.59
2018-11-14T06:17:56.493Z,101309.56
2018-11-14T06:20:24.868Z,101311.13
2018-11-14T06:22:53.610Z,101310.23
2018-11-14T06:25:26.802Z,101303.95
2018-11-14T06:27:56.105Z,101317.16
2018-11-14T06:30:24.818Z,101319.16
2018-11-14T06:32:53.833Z,101330.08
2018-11-14T06:35:22.450Z,101335.11
2018-11-14T06:37:51.605Z,101320.64
2018-11-14T06:40:20.196Z,101328.80
2018-11-14T06:42:48.640Z,101338.89
2018-11-14T06:45:21.125Z,101339.82
2018-11-14T06:47:50.757Z,101334.88
2018-11-14T06:50:19.133Z,101335.05
2018-11-14T06:52:48.589Z,101341.25
2018-11-14T06:55:17.893Z,101343.44
2018-11-14T06:57:46.294Z,101354.12
2018-11-14T07:00:23.289Z,101344.58
2018-11-14T07:02:52.157Z,101349.56
2018-11-14T07:05:24.676Z,101346.53
2018-11-14T07:07:53.157Z,101347.48
2018-11-14T07:10:24.946Z,101356.19
2018-11-14T07:12:53.374Z,101355.14
2018-11-14T07:15:23.062Z,101360.48
2018-11-14T07:17:52.579Z,101360.67
2018-11-14T07:20:27.346Z,101355.45
2018-11-14T07:22:55.741Z,101358.74
2018-11-14T07:25:24.161Z,101368.09
2018-11-14T07:27:52.558Z,101370.72
2018-11-14T07:30:22.541Z,101361.27
2018-11-14T07:32:54.268Z,101366.41
2018-11-14T07:35:22.726Z,101368.27
2018-11-14T07:38:07.825Z,101367.67
2018-11-14T07:40:36.232Z,101365.08
2018-11-14T07:43:04.674Z,101371.00
2018-11-14T07:45:33.087Z,101371.20
2018-11-14T07:48:01.490Z,101373.19
2018-11-14T07:50:31.046Z,101381.42
2018-11-14T07:52:59.569Z,101382.69
2018-11-14T07:55:27.942Z,101376.98
2018-11-14T07:57:56.377Z,101385.32
2018-11-14T08:00:24.773Z,101387.25
2018-11-14T08:02:53.169Z,101389.13
2018-11-14T08:05:21.590Z,101397.17
2018-11-14T08:07:50.071Z,101399.23
2018-11-14T08:10:18.606Z,101393.98
2018-11-14T08:12:46.981Z,101405.31
2018-11-14T08:15:15.367Z,101408.95
2018-11-14T08:17:43.760Z,101401.22
2018-11-14T08:20:13.085Z,101399.02
2018-11-14T08:22:42.100Z,101402.17
2018-11-14T08:25:10.577Z,101393.61
2018-11-14T08:27:40.538Z,101385.94
2018-11-14T08:30:13.052Z,101380.27
2018-11-14T08:32:44.318Z,101368.56
2018-11-14T08:35:15.693Z,101359.84
2018-11-14T08:37:46.412Z,101341.91
2018-11-14T08:40:18.263Z,101355.72
2018-11-14T08:42:46.805Z,101342.45
2018-11-14T08:45:15.177Z,101339.17
2018-11-14T08:47:43.662Z,101339.09
2018-11-14T08:50:15.304Z,101338.33
2018-11-14T08:52:44.038Z,101339.92
2018-11-14T08:55:13.184Z,101329.39
2018-11-14T08:57:42.573Z,101328.37
2018-11-14T09:00:14.317Z,101331.55
2018-11-14T09:02:43.149Z,101325.35
2018-11-14T09:05:11.649Z,101322.62
2018-11-14T09:07:40.084Z,101310.81
2018-11-14T09:10:11.408Z,101313.44
2018-11-14T09:12:40.306Z,101310.55
2018-11-14T09:15:10.466Z,101314.29
2018-11-14T09:17:38.963Z,101316.18
2018-11-14T09:20:08.702Z,101316.11
2018-11-14T09:22:37.378Z,101317.48
2018-11-14T09:25:07.718Z,101319.36
2018-11-14T09:27:36.113Z,101316.99
2018-11-14T09:30:05.794Z,101323.31
2018-11-14T09:32:34.202Z,101308.39
2018-11-14T09:35:02.586Z,101306.53
2018-11-14T09:37:30.981Z,101306.92
2018-11-14T09:39:59.405Z,101305.78
2018-11-14T09:42:27.822Z,101294.37
2018-11-14T09:44:57.697Z,101289.38
2018-11-14T09:47:28.063Z,101289.05
2018-11-14T09:49:58.046Z,101290.78
2018-11-14T09:52:28.258Z,101279.97
2018-11-14T09:54:59.227Z,101277.39
2018-11-14T09:57:29.544Z,101278.11
2018-11-14T10:00:00.839Z,101278.63
2018-11-14T10:02:31.126Z,101270.72
2018-11-14T10:05:00.983Z,101272.14
2018-11-14T10:07:32.421Z,101268.80
2018-11-14T10:10:03.893Z,101263.17
2018-11-14T10:12:34.075Z,101263.70
2018-11-14T10:15:03.663Z,101254.57
2018-11-14T10:17:34.264Z,101246.48
2018-11-14T10:20:03.050Z,101241.98
2018-11-14T10:22:33.641Z,101229.89
2018-11-14T10:25:02.967Z,101229.95
2018-11-14T10:27:32.999Z,101215.52
2018-11-14T10:30:12.562Z,101218.05
2018-11-14T10:32:41.846Z,101207.17
2018-11-14T10:35:11.132Z,101200.41
2018-11-14T10:37:40.324Z,101188.38
2018-11-14T10:40:11.594Z,101181.97
2018-11-14T10:42:42.088Z,101172.13
2018-11-14T10:45:14.417Z,101161.88
2018-11-14T10:47:45.875Z,101155.05
2018-11-14T10:50:17.218Z,101152.26
2018-11-14T10:52:46.377Z,101155.57
2018-11-14T10:55:17.918Z,101145.34
2018-11-14T10:57:46.820Z,101137.61
2018-11-14T11:00:23.370Z,101141.17
2018-11-14T11:02:57.665Z,101133.38
2018-11-14T11:06:30.016Z,101132.15
2018-11-14T11:09:03.817Z,101123.94
2018-11-14T11:11:36.720Z,101117.12
2018-11-14T11:14:10.570Z,101120.43
2018-11-14T11:16:44.474Z,101116.40
2018-11-14T11:19:26.189Z,101108.19
2018-11-14T11:21:55.034Z,101102.16
2018-11-14T11:24:24.078Z,101098.59
2018-11-14T11:26:52.785Z,101095.95
2018-11-14T11:29:21.549Z,101094.06
2018-11-14T11:31:50.621Z,101086.97
2018-11-14T11:34:19.400Z,101087.20
2018-11-14T11:36:48.237Z,101076.16
2018-11-14T11:39:18.310Z,101069.09
2018-11-14T11:41:47.430Z,101067.87
2018-11-14T11:44:16.331Z,101057.54
2018-11-14T11:46:46.993Z,101058.48
2018-11-14T11:49:15.810Z,101055.17
2018-11-14T11:51:44.766Z,101054.09
2018-11-14T11:54:13.532Z,101051.78
2018-11-14T11:56:42.230Z,101051.02
2018-11-14T11:59:11.268Z,101045.78
2018-11-14T12:01:39.920Z,101045.83
2018-11-14T12:04:10.858Z,101043.89
2018-11-14T12:06:41.074Z,101042.77
2018-11-14T12:09:12.864Z,101040.00
2018-11-14T12:11:41.330Z,101036.77
2018-11-14T12:14:09.809Z,101036.89
2018-11-14T12:16:38.295Z,101040.25
2018-11-14T12:19:06.797Z,101029.29
2018-11-14T12:21:35.170Z,101029.97
2018-11-14T12:24:03.604Z,101026.11
2018-11-14T12:26:32.057Z,101029.48
2018-11-14T12:29:00.542Z,101024.93
2018-11-14T12:31:29.021Z,101016.81
2018-11-14T12:33:57.433Z,101016.21
2018-11-14T12:36:25.857Z,101008.48
2018-11-14T12:38:54.324Z,101000.80
2018-11-14T12:41:22.678Z,101005.84
2018-11-14T12:43:51.053Z,101007.69
2018-11-14T12:46:19.515Z,101005.77
2018-11-14T12:48:47.904Z,101008.91
2018-11-14T12:51:16.342Z,101009.06
2018-11-14T12:53:44.738Z,101005.30
2018-11-14T12:56:13.146Z,100994.78
2018-11-14T12:58:41.521Z,101000.65
2018-11-14T13:01:09.977Z,100997.56
2018-11-14T13:03:38.354Z,100978.23
2018-11-14T13:06:06.805Z,100987.94
2018-11-14T13:08:35.222Z,100986.10
2018-11-14T13:11:03.633Z,100980.60
2018-11-14T13:13:37.201Z,100985.34
2018-11-14T13:16:06.109Z,100988.16
2018-11-14T13:18:34.460Z,100991.05
2018-11-14T13:21:02.857Z,100982.53
2018-11-14T13:23:31.273Z,100978.42
2018-11-14T13:25:59.781Z,100977.45
2018-11-14T13:28:28.185Z,100976.20
2018-11-14T13:30:56.622Z,100980.95
2018-11-14T13:33:24.981Z,100999.45
2018-11-14T13:35:53.380Z,101010.80
2018-11-14T13:38:21.753Z,101029.61
2018-11-14T13:40:50.185Z,101037.33
2018-11-14T13:43:18.670Z,101050.23
2018-11-14T13:45:47.065Z,101059.91
2018-11-14T13:48:15.448Z,101064.17
2018-11-14T13:50:44.174Z,101057.37
2018-11-14T13:53:12.325Z,101061.73
2018-11-14T13:55:40.733Z,101082.22
2018-11-14T13:58:09.118Z,101092.95
2018-11-14T14:00:37.522Z,101132.73
2018-11-14T14:03:06.114Z,101142.06
2018-11-14T14:05:34.533Z,101148.95
2018-11-14T14:08:02.947Z,101153.33
2018-11-14T14:10:31.362Z,101158.27
2018-11-14T14:12:59.777Z,101153.62
2018-11-14T14:15:28.596Z,101162.68
2018-11-14T14:17:57.001Z,101160.44
2018-11-14T14:20:25.637Z,101146.56
2018-11-14T14:22:54.037Z,101134.44
2018-11-14T14:25:23.200Z,101112.55
2018-11-14T14:27:51.617Z,101103.64
2018-11-14T14:30:22.189Z,101090.11
2018-11-14T14:32:50.636Z,101072.55
2018-11-14T14:35:20.173Z,101066.36
2018-11-14T14:37:48.574Z,101051.92
2018-11-14T14:40:20.049Z,101037.27
2018-11-14T14:42:48.551Z,101029.55
2018-11-14T14:45:18.785Z,101020.89
2018-11-14T14:47:47.190Z,101016.89
2018-11-14T14:50:16.805Z,101011.42
2018-11-14T14:52:47.769Z,101013.01
2018-11-14T14:55:19.895Z,101004.77
2018-11-14T14:57:48.915Z,100997.88
2018-11-14T15:00:20.906Z,100998.81
2018-11-14T15:02:49.690Z,100997.60
2018-11-14T15:05:22.116Z,100982.69
2018-11-14T15:07:50.727Z,100975.22
2018-11-14T15:10:20.955Z,100960.38
2018-11-14T15:12:49.652Z,100959.09
2018-11-14T15:15:18.388Z,100946.16
2018-11-14T15:17:47.145Z,100943.91
2018-11-14T15:20:18.747Z,100946.19
2018-11-14T15:22:48.045Z,100936.23
2018-11-14T15:25:18.889Z,100936.89
2018-11-14T15:27:48.041Z,100937.44
2018-11-14T15:30:19.614Z,100933.47
2018-11-14T15:32:48.630Z,100934.75
2018-11-14T15:35:17.305Z,100937.33
2018-11-14T15:37:46.049Z,100941.05
2018-11-14T15:40:16.162Z,100934.31
2018-11-14T15:43:03.214Z,100938.47
2018-11-14T15:45:32.161Z,100943.39
2018-11-14T15:48:01.217Z,100947.16
2018-11-14T15:50:30.699Z,100948.62
2018-11-14T15:53:04.451Z,100951.33
2018-11-14T15:55:33.151Z,100959.09
2018-11-14T15:58:06.295Z,100954.36
2018-11-14T16:00:34.922Z,100961.80
2018-11-14T16:03:06.073Z,100961.71
2018-11-14T16:05:37.708Z,100962.16
2018-11-14T16:08:06.450Z,100969.80
2018-11-14T16:10:35.179Z,100973.05
2018-11-14T16:13:09.693Z,100976.05
2018-11-14T16:15:38.486Z,100975.61
2018-11-14T16:18:07.201Z,100986.72
2018-11-14T16:20:35.778Z,100982.20
2018-11-14T16:23:05.430Z,100993.09
2018-11-14T16:31:20.321Z,100997.92
2018-11-14T16:33:48.761Z,101000.77
2018-11-14T16:36:17.132Z,100997.38
2018-11-14T16:38:45.489Z,101005.63
2018-11-14T16:41:14.034Z,101005.97
2018-11-14T16:43:42.447Z,101009.55
2018-11-14T16:46:11.094Z,101008.95
2018-11-14T16:48:39.518Z,101016.17
2018-11-14T16:51:07.899Z,101023.36
2018-11-14T16:53:36.285Z,101022.75
2018-11-14T16:56:04.802Z,101018.31
2018-11-14T16:58:33.205Z,101009.80
2018-11-14T17:01:01.615Z,101012.03
2018-11-14T17:03:30.007Z,101011.19
2018-11-14T17:05:58.521Z,101013.20
2018-11-14T17:08:26.917Z,101015.52
2018-11-14T17:10:55.298Z,101013.95
2018-11-14T17:13:23.691Z,101016.04
2018-11-14T17:15:52.113Z,101020.42
2018-11-14T17:18:20.625Z,101016.82
2018-11-14T17:20:49.005Z,101019.84
2018-11-14T17:23:18.033Z,101020.94
2018-11-14T17:25:46.725Z,101023.84
2018-11-14T17:28:15.521Z,101027.59
2018-11-14T17:30:44.345Z,101030.01
2018-11-14T17:33:13.030Z,101032.41
2018-11-14T17:35:42.159Z,101034.11
2018-11-14T17:38:12.584Z,101039.53
2018-11-14T17:40:43.074Z,101033.94
2018-11-14T17:43:11.833Z,101039.03
2018-11-14T17:45:40.808Z,101039.99
2018-11-14T17:48:09.547Z,101043.22
2018-11-14T17:50:38.221Z,101043.85
2018-11-14T17:53:10.566Z,101046.98
2018-11-14T17:55:39.974Z,101044.53
2018-11-14T17:58:10.666Z,101043.92
2018-11-14T18:00:39.351Z,101035.28
2018-11-14T18:03:08.130Z,101037.03
2018-11-14T18:05:36.711Z,101036.83
2018-11-14T18:08:05.442Z,101040.95
2018-11-14T18:10:38.387Z,101035.44
2018-11-14T18:13:07.041Z,101038.08
2018-11-14T18:15:35.742Z,101047.41
2018-11-14T18:18:04.563Z,101047.61
2018-11-14T18:20:36.135Z,101044.69
2018-11-14T18:23:04.573Z,101045.81
2018-11-14T18:25:32.965Z,101051.59
2018-11-14T18:28:01.378Z,101060.20
2018-11-14T18:30:30.860Z,101056.33
2018-11-14T18:33:00.209Z,101057.89
2018-11-14T18:35:28.860Z,101057.63
2018-11-14T18:37:58.228Z,101060.93
2018-11-14T18:40:29.099Z,101067.98
2018-11-14T18:42:57.567Z,101067.25
2018-11-14T18:45:30.859Z,101064.55
2018-11-14T18:48:00.201Z,101067.31
2018-11-14T18:50:28.791Z,101064.80
2018-11-14T18:52:57.222Z,101070.19
2018-11-14T18:55:27.058Z,101067.64
2018-11-14T18:57:55.820Z,101068.98
2018-11-14T19:00:26.573Z,101075.30
2018-11-14T19:02:54.990Z,101070.51
2018-11-14T19:05:23.417Z,101068.66
2018-11-14T19:10:50.642Z,101071.32
2018-11-14T19:13:19.094Z,101074.90
2018-11-14T19:15:47.500Z,101073.67
2018-11-14T19:18:15.910Z,101070.56
2018-11-14T19:20:44.297Z,101068.05
2018-11-14T19:23:12.782Z,101070.33
2018-11-14T19:25:41.178Z,101067.61
2018-11-14T19:28:09.592Z,101076.64
2018-11-14T19:30:38.719Z,101080.86
2018-11-14T19:33:07.170Z,101076.66
2018-11-14T19:35:35.601Z,101068.26
2018-11-14T19:38:04.121Z,101067.00
2018-11-14T19:40:33.761Z,101065.66
2018-11-14T19:43:03.320Z,101059.89
2018-11-14T19:45:33.862Z,101058.13
2018-11-14T19:48:02.318Z,101058.13
2018-11-14T19:50:30.739Z,101065.41
2018-11-14T19:52:59.212Z,101060.70
2018-11-14T19:55:28.315Z,101049.41
2018-11-14T19:57:57.765Z,101047.64
2018-11-14T20:00:27.491Z,101047.80
2018-11-14T20:02:55.942Z,101046.08
2018-11-14T20:05:24.470Z,101045.45
2018-11-14T20:07:52.993Z,101042.42
2018-11-14T20:10:25.856Z,101048.55
2018-11-14T20:12:54.564Z,101050.61
2018-11-14T20:15:24.333Z,101055.61
2018-11-14T20:17:52.853Z,101049.60
2018-11-14T20:20:23.545Z,101052.67
2018-11-14T20:22:51.962Z,101050.41
2018-11-14T20:25:20.502Z,101055.20
2018-11-14T20:27:49.044Z,101055.25
2018-11-14T20:30:20.269Z,101059.80
2018-11-14T20:32:49.303Z,101063.36
2018-11-14T20:35:18.947Z,101066.44
2018-11-14T20:37:47.332Z,101056.72
2018-11-14T20:40:17.013Z,101059.24
2018-11-14T20:42:45.971Z,101061.59
2018-11-14T20:45:16.821Z,101064.37
2018-11-14T20:47:45.382Z,101059.70
2018-11-14T20:50:16.081Z,101059.66
2018-11-14T20:52:45.141Z,101064.06
2018-11-14T20:55:13.800Z,101066.41
2018-11-14T20:57:43.469Z,101068.14
2018-11-14T21:00:15.243Z,101066.58
2018-11-14T21:02:43.765Z,101068.05
2018-11-14T21:05:13.054Z,101068.68
2018-11-14T21:07:42.528Z,101064.02
2018-11-14T21:10:12.864Z,101066.61
2018-11-14T21:12:41.364Z,101068.86
2018-11-14T21:15:11.658Z,101069.06
2018-11-14T21:17:40.180Z,101065.74
2018-11-14T21:20:09.109Z,101070.33
2018-11-14T21:22:38.369Z,101069.23
2018-11-14T21:25:08.209Z,101067.02
2018-11-14T21:27:36.602Z,101065.80
2018-11-14T21:30:07.102Z,101068.19
2018-11-14T21:32:35.473Z,101065.77
2018-11-14T21:35:03.902Z,101072.81
2018-11-14T21:37:32.253Z,101067.69
2018-11-14T21:40:00.659Z,101070.50
2018-11-14T21:42:29.070Z,101070.71
2018-11-14T21:47:27.470Z,101068.56
2018-11-14T21:49:55.866Z,101067.14
2018-11-14T21:52:24.245Z,101071.68
2018-11-14T21:54:52.633Z,101069.75
2018-11-14T21:57:21.038Z,101074.58
2018-11-14T21:59:49.490Z,101077.56
2018-11-14T22:02:17.841Z,101076.67
2018-11-14T22:04:46.233Z,101079.62
2018-11-14T22:07:14.641Z,101084.08
2018-11-14T22:09:43.114Z,101078.91
2018-11-14T22:12:11.569Z,101079.08
2018-11-14T22:14:40.020Z,101082.27
2018-11-14T22:17:08.395Z,101090.97
2018-11-14T22:19:36.839Z,101087.56
2018-11-14T22:22:05.583Z,101081.93
2018-11-14T22:24:33.983Z,101085.30
2018-11-14T22:27:02.368Z,101083.45
2018-11-14T22:29:30.790Z,101087.94
2018-11-14T22:31:59.162Z,101089.80
2018-11-14T22:34:27.592Z,101093.91
2018-11-14T22:36:55.957Z,101081.98
2018-11-14T22:39:24.368Z,101082.82
2018-11-14T22:41:52.808Z,101087.19
2018-11-14T22:44:21.186Z,101088.83
2018-11-14T22:46:49.604Z,101094.54
2018-11-14T22:49:17.994Z,101088.23
2018-11-14T22:51:46.374Z,101083.66
2018-11-14T22:54:14.742Z,101090.59
2018-11-14T22:56:43.165Z,101078.07
2018-11-14T22:59:11.562Z,101087.78
2018-11-14T23:01:40.015Z,101087.06
2018-11-14T23:04:08.412Z,101091.27
2018-11-14T23:06:36.834Z,101093.33
2018-11-14T23:09:08.458Z,101097.91
2018-11-14T23:11:36.873Z,101093.96
2018-11-14T23:14:05.743Z,101099.34
2018-11-14T23:16:34.215Z,101097.06
2018-11-14T23:19:02.660Z,101101.61
2018-11-14T23:21:31.193Z,101095.09
2018-11-14T23:23:59.960Z,101096.65
2018-11-14T23:26:28.521Z,101095.44
2018-11-14T23:28:56.938Z,101103.91
2018-11-14T23:31:25.363Z,101104.09
2018-11-14T23:33:53.816Z,101111.52
2018-11-14T23:36:22.261Z,101099.92
2018-11-14T23:38:50.641Z,101100.17
2018-11-14T23:41:19.034Z,101102.66
2018-11-14T23:43:47.441Z,101099.38
2018-11-14T23:46:15.846Z,101104.55
2018-11-14T23:48:44.310Z,101106.85
2018-11-14T23:51:12.707Z,101103.70
2018-11-14T23:53:41.089Z,101105.93
2018-11-14T23:56:09.515Z,101105.72
2018-11-14T23:58:37.903Z,101104.16
